This is the latest recevied weather packets stored in our database for station/object HB9TJM-8. If no packets are shown the sender has not sent any weather packets the latest 10 day(s).
| Time | Temp. | Humidity | Pressure | Rain* | Wind** | Luminosity | Snow |
|---|---|---|---|---|---|---|---|
| 1777613831 | 10° C | 44% | 1023.4 hPa | 0 mm | - | 62 W/m² | - |
| 1777613523 | 9.44° C | 47% | 1023.7 hPa | 0 mm | - | 58 W/m² | - |
| 1777613216 | 8.89° C | 47% | 1023.5 hPa | 0 mm | - | 53 W/m² | - |
| 1777612909 | 8.33° C | 48% | 1023.5 hPa | 0 mm | - | 49 W/m² | - |
| 1777612602 | 8.33° C | 46% | 1023.7 hPa | 0 mm | - | 45 W/m² | - |
| 1777612294 | 7.22° C | 47% | 1023.3 hPa | 0 mm | - | 41 W/m² | - |
| 1777611986 | 6.67° C | 48% | 1023.6 hPa | 0 mm | - | 36 W/m² | - |
| 1777611678 | 6.67° C | 48% | 1023.9 hPa | 0 mm | - | 32 W/m² | - |
| 1777611371 | 6.11° C | 50% | 1023.5 hPa | 0 mm | - | 27 W/m² | - |
| 1777611063 | 6.11° C | 52% | 1023.8 hPa | 0 mm | - | 23 W/m² | - |
| 1777610756 | 5.56° C | 52% | 1023.9 hPa | 0 mm | - | 19 W/m² | - |
| 1777610448 | 5.56° C | 50% | 1023.9 hPa | 0 mm | - | 15 W/m² | - |
| 1777610141 | 5.56° C | 52% | 1023.4 hPa | 0 mm | - | 11 W/m² | - |
| 1777609833 | 5° C | 53% | 1023.3 hPa | 0 mm | - | 8 W/m² | - |
| 1777609526 | 5° C | 53% | 1023 hPa | 0 mm | - | 5 W/m² | - |
| 1777609218 | 5° C | 54% | 1023.1 hPa | 0 mm | - | 3 W/m² | - |
| 1777608911 | 5.56° C | 53% | 1023.4 hPa | 0 mm | - | 2 W/m² | - |
| 1777608603 | 5.56° C | 53% | 1023.6 hPa | 0 mm | - | 1 W/m² | - |
| 1777608295 | 5° C | 52% | 1023.5 hPa | 0 mm | - | 0 W/m² | - |
| 1777607988 | 5.56° C | 52% | 1023.3 hPa | 0 mm | - | 0 W/m² | - |
| 1777607681 | 5.56° C | 52% | 1023.4 hPa | 0 mm | - | 0 W/m² | - |
| 1777607374 | 5.56° C | 52% | 1023.2 hPa | 0 mm | - | 0 W/m² | - |
| 1777607066 | 5.56° C | 51% | 1023.2 hPa | 0 mm | - | 0 W/m² | - |
| 1777606759 | 5.56° C | 52% | 1023.1 hPa | 0 mm | - | 0 W/m² | - |
| 1777606452 | 5.56° C | 52% | 1023.2 hPa | 0 mm | - | 0 W/m² | - |
* Rain latest hour (hover to see other rain measurements)
** Current wind speed in m/s (hover to see current wind gust speed)